createdAt,value
2022-10-31T00:01:37.794Z,101393.34
2022-10-31T00:04:04.366Z,101388.53
2022-10-31T00:06:30.880Z,101396.63
2022-10-31T00:08:58.968Z,101393.81
2022-10-31T00:11:25.409Z,101396.22
2022-10-31T00:13:52.427Z,101393.03
2022-10-31T00:16:20.264Z,101400.34
2022-10-31T00:18:51.226Z,101400.00
2022-10-31T00:21:17.455Z,101400.88
2022-10-31T00:23:43.870Z,101404.56
2022-10-31T00:26:10.147Z,101405.81
2022-10-31T00:28:37.949Z,101406.66
2022-10-31T00:31:05.318Z,101417.19
2022-10-31T00:33:31.616Z,101417.25
2022-10-31T00:35:57.907Z,101416.47
2022-10-31T00:38:24.207Z,101415.72
2022-10-31T00:40:51.031Z,101412.94
2022-10-31T00:43:17.286Z,101412.16
2022-10-31T00:45:44.035Z,101411.41
2022-10-31T00:48:10.643Z,101422.75
2022-10-31T00:50:37.526Z,101416.72
2022-10-31T00:53:05.858Z,101412.69
2022-10-31T00:55:32.285Z,101412.34
2022-10-31T00:57:58.921Z,101421.63
2022-10-31T01:00:25.533Z,101414.00
2022-10-31T01:02:51.856Z,101410.41
2022-10-31T01:05:18.237Z,101403.19
2022-10-31T01:07:44.479Z,101400.78
2022-10-31T01:10:11.833Z,101399.59
2022-10-31T01:12:42.111Z,101405.66
2022-10-31T01:15:11.233Z,101411.72
2022-10-31T01:17:37.952Z,101408.91
2022-10-31T01:20:05.166Z,101408.91
2022-10-31T01:22:31.782Z,101411.38
2022-10-31T01:24:59.167Z,101413.34
2022-10-31T01:27:25.388Z,101412.16
2022-10-31T01:29:51.957Z,101406.91
2022-10-31T01:32:18.394Z,101406.09
2022-10-31T01:34:45.192Z,101411.38
2022-10-31T01:37:11.813Z,101411.38
2022-10-31T01:39:38.086Z,101403.25
2022-10-31T01:42:04.401Z,101408.91
2022-10-31T01:44:30.842Z,101404.47
2022-10-31T01:46:57.601Z,101390.38
2022-10-31T01:49:35.915Z,101383.09
2022-10-31T01:52:05.780Z,101385.13
2022-10-31T01:54:35.051Z,101392.78
2022-10-31T01:57:02.787Z,101405.22
2022-10-31T01:59:30.587Z,101415.69
2022-10-31T02:01:56.965Z,101423.34
2022-10-31T02:04:24.879Z,101433.00
2022-10-31T02:07:03.877Z,101432.63
2022-10-31T02:09:34.044Z,101450.34
2022-10-31T02:12:00.800Z,101443.53
2022-10-31T02:14:29.987Z,101439.13
2022-10-31T02:16:56.302Z,101435.91
2022-10-31T02:19:34.742Z,101419.88
2022-10-31T02:22:07.873Z,101418.31
2022-10-31T02:24:52.348Z,101406.25
2022-10-31T02:27:21.651Z,101395.41
2022-10-31T02:30:11.249Z,101389.38
2022-10-31T02:32:55.190Z,101393.78
2022-10-31T02:35:24.327Z,101395.34
2022-10-31T02:38:05.897Z,101385.22
2022-10-31T02:40:59.565Z,101396.00
2022-10-31T02:43:31.924Z,101381.00
2022-10-31T02:46:17.187Z,101389.00
2022-10-31T02:48:45.250Z,101396.56
2022-10-31T02:51:12.504Z,101393.22
2022-10-31T02:53:39.109Z,101387.91
2022-10-31T02:56:07.853Z,101390.25
2022-10-31T02:58:36.786Z,101385.31
2022-10-31T03:01:15.293Z,101394.50
2022-10-31T03:03:51.254Z,101394.38
2022-10-31T03:06:18.571Z,101392.66
2022-10-31T03:09:04.127Z,101393.00
2022-10-31T03:11:33.987Z,101395.75
2022-10-31T03:14:32.998Z,101396.47
2022-10-31T03:17:01.344Z,101404.03
2022-10-31T03:19:32.222Z,101410.06
2022-10-31T03:22:16.297Z,101419.25
2022-10-31T03:24:42.836Z,101420.84
2022-10-31T03:27:10.896Z,101419.97
2022-10-31T03:29:38.125Z,101425.59
2022-10-31T03:32:16.208Z,101431.22
2022-10-31T03:34:43.888Z,101429.22
2022-10-31T03:37:11.938Z,101431.66
2022-10-31T03:39:39.818Z,101428.47
2022-10-31T03:42:07.246Z,101437.00
2022-10-31T03:44:34.608Z,101428.97
2022-10-31T03:47:02.036Z,101425.75
2022-10-31T03:49:28.791Z,101427.38
2022-10-31T03:52:13.309Z,101428.66
2022-10-31T03:54:39.505Z,101428.25
2022-10-31T03:57:11.928Z,101422.28
2022-10-31T03:59:42.277Z,101407.81
2022-10-31T04:02:12.650Z,101421.91
2022-10-31T04:04:39.358Z,101436.34
2022-10-31T04:07:06.814Z,101429.47
2022-10-31T04:09:34.560Z,101431.84
2022-10-31T04:12:01.868Z,101433.03
2022-10-31T04:14:30.759Z,101425.34
2022-10-31T04:16:57.015Z,101420.84
2022-10-31T04:19:23.289Z,101418.78
2022-10-31T04:21:49.867Z,101417.47
2022-10-31T04:24:16.175Z,101408.94
2022-10-31T04:26:42.601Z,101409.28
2022-10-31T04:29:08.858Z,101398.34
2022-10-31T04:31:35.282Z,101393.41
2022-10-31T04:34:01.559Z,101398.53
2022-10-31T04:36:28.117Z,101398.84
2022-10-31T04:38:55.894Z,101402.78
2022-10-31T04:41:23.474Z,101400.28
2022-10-31T04:43:50.153Z,101402.56
2022-10-31T04:46:16.434Z,101400.06
2022-10-31T04:48:42.939Z,101402.03
2022-10-31T04:51:09.277Z,101412.41
2022-10-31T04:53:35.579Z,101401.06
2022-10-31T04:56:01.918Z,101408.59
2022-10-31T04:58:28.912Z,101403.69
2022-10-31T05:00:55.969Z,101398.03
2022-10-31T05:03:23.215Z,101397.94
2022-10-31T05:05:49.625Z,101399.50
2022-10-31T05:08:15.987Z,101407.50
2022-10-31T05:10:42.392Z,101396.97
2022-10-31T05:13:09.208Z,101393.75
2022-10-31T05:15:35.770Z,101388.50
2022-10-31T05:18:02.497Z,101387.69
2022-10-31T05:20:29.955Z,101385.22
2022-10-31T05:22:57.834Z,101384.78
2022-10-31T05:25:25.727Z,101374.75
2022-10-31T05:27:52.482Z,101370.66
2022-10-31T05:30:21.474Z,101374.19
2022-10-31T05:32:48.813Z,101364.91
2022-10-31T05:35:20.300Z,101372.88
2022-10-31T05:37:46.576Z,101382.06
2022-10-31T05:40:13.955Z,101376.00
2022-10-31T05:42:41.325Z,101378.72
2022-10-31T05:45:08.637Z,101378.28
2022-10-31T05:47:35.969Z,101377.41
2022-10-31T05:50:02.254Z,101368.88
2022-10-31T05:52:28.608Z,101367.66
2022-10-31T05:54:55.024Z,101374.81
2022-10-31T05:57:21.409Z,101377.56
2022-10-31T05:59:52.348Z,101366.25
2022-10-31T06:02:21.384Z,101374.19
2022-10-31T06:04:47.739Z,101363.72
2022-10-31T06:07:15.087Z,101366.06
2022-10-31T06:09:41.311Z,101371.25
2022-10-31T06:12:07.743Z,101372.44
2022-10-31T06:14:33.971Z,101370.81
2022-10-31T06:17:00.195Z,101376.44
2022-10-31T06:19:26.816Z,101375.25
2022-10-31T06:21:53.055Z,101376.06
2022-10-31T06:24:19.285Z,101380.88
2022-10-31T06:26:45.690Z,101376.44
2022-10-31T06:29:11.896Z,101384.03
2022-10-31T06:31:38.383Z,101374.34
2022-10-31T06:34:04.808Z,101379.16
2022-10-31T06:36:31.210Z,101389.13
2022-10-31T06:38:57.573Z,101377.88
2022-10-31T06:41:23.792Z,101379.41
2022-10-31T06:43:50.022Z,101371.81
2022-10-31T06:46:16.290Z,101373.44
2022-10-31T06:48:42.964Z,101369.84
2022-10-31T06:51:09.689Z,101372.72
2022-10-31T06:53:36.009Z,101377.97
2022-10-31T06:56:02.317Z,101375.25
2022-10-31T06:58:28.536Z,101383.72
2022-10-31T07:00:54.806Z,101374.56
2022-10-31T07:03:21.390Z,101383.09
2022-10-31T07:05:47.645Z,101387.22
2022-10-31T07:08:14.455Z,101382.50
2022-10-31T07:10:41.989Z,101392.66
2022-10-31T07:13:14.642Z,101385.91
2022-10-31T07:15:42.060Z,101392.47
2022-10-31T07:18:10.421Z,101388.94
2022-10-31T07:20:36.874Z,101392.25
2022-10-31T07:23:04.120Z,101392.78
2022-10-31T07:25:30.873Z,101388.03
2022-10-31T07:27:57.407Z,101393.34
2022-10-31T07:30:24.048Z,101395.44
2022-10-31T07:32:51.165Z,101403.97
2022-10-31T07:35:19.831Z,101396.75
2022-10-31T07:37:46.339Z,101395.66
2022-10-31T07:40:13.084Z,101396.53
2022-10-31T07:42:40.214Z,101398.25
2022-10-31T07:45:07.811Z,101397.94
2022-10-31T07:47:40.553Z,101399.66
2022-10-31T07:50:07.423Z,101397.25
2022-10-31T07:52:33.623Z,101400.16
2022-10-31T07:54:59.882Z,101398.59
2022-10-31T07:57:28.462Z,101391.38
2022-10-31T07:59:57.084Z,101391.47
2022-10-31T08:02:23.561Z,101388.66
2022-10-31T08:04:50.204Z,101382.28
2022-10-31T08:07:16.944Z,101383.13
2022-10-31T08:09:43.359Z,101390.84
2022-10-31T08:12:09.599Z,101387.63
2022-10-31T08:14:35.849Z,101398.16
2022-10-31T08:17:02.065Z,101398.22
2022-10-31T08:19:28.303Z,101396.28
2022-10-31T08:21:55.881Z,101366.16
2022-10-31T08:24:22.487Z,101369.03
2022-10-31T08:26:49.140Z,101368.31
2022-10-31T08:29:15.813Z,101370.34
2022-10-31T08:31:43.182Z,101367.59
2022-10-31T08:34:09.453Z,101371.28
2022-10-31T08:36:35.749Z,101375.31
2022-10-31T08:39:05.260Z,101378.66
2022-10-31T08:41:32.218Z,101374.25
2022-10-31T08:43:58.542Z,101370.31
2022-10-31T08:46:24.795Z,101371.22
2022-10-31T08:48:51.277Z,101368.88
2022-10-31T08:51:17.536Z,101372.97
2022-10-31T08:53:43.740Z,101375.09
2022-10-31T08:56:09.940Z,101380.00
2022-10-31T08:58:40.285Z,101374.50
2022-10-31T09:01:06.893Z,101371.81
2022-10-31T09:03:33.322Z,101363.44
2022-10-31T09:06:00.493Z,101365.56
2022-10-31T09:08:27.384Z,101365.66
2022-10-31T09:10:57.077Z,101364.56
2022-10-31T09:13:27.324Z,101364.28
2022-10-31T09:15:54.389Z,101365.19
2022-10-31T09:18:21.951Z,101358.44
2022-10-31T09:20:48.910Z,101367.38
2022-10-31T09:23:19.373Z,101361.81
2022-10-31T09:25:50.892Z,101360.28
2022-10-31T09:28:19.228Z,101365.63
2022-10-31T09:30:47.565Z,101358.81
2022-10-31T09:33:14.061Z,101360.50
2022-10-31T09:35:41.129Z,101360.13
2022-10-31T09:38:11.825Z,101357.75
2022-10-31T09:40:42.446Z,101360.66
2022-10-31T09:43:27.855Z,101359.88
2022-10-31T09:45:56.862Z,101351.44
2022-10-31T09:48:32.231Z,101348.63
2022-10-31T09:50:58.533Z,101345.81
2022-10-31T09:53:29.051Z,101341.81
2022-10-31T09:55:57.724Z,101336.59
2022-10-31T09:58:28.478Z,101334.63
2022-10-31T10:00:58.318Z,101320.94
2022-10-31T10:03:37.124Z,101328.22
2022-10-31T10:06:15.832Z,101315.31
2022-10-31T10:08:42.412Z,101319.78
2022-10-31T10:11:14.134Z,101316.59
2022-10-31T10:13:46.437Z,101324.69
2022-10-31T10:16:22.050Z,101311.38
2022-10-31T10:18:51.522Z,101304.94
2022-10-31T10:21:17.719Z,101314.66
2022-10-31T10:23:58.459Z,101307.84
2022-10-31T10:26:35.833Z,101312.72
2022-10-31T10:29:03.855Z,101308.69
2022-10-31T10:31:33.813Z,101304.25
2022-10-31T10:34:18.470Z,101303.84
2022-10-31T10:37:11.192Z,101298.22
2022-10-31T10:39:39.800Z,101293.78
2022-10-31T10:42:31.890Z,101293.38
2022-10-31T10:45:16.682Z,101302.72
2022-10-31T10:47:44.609Z,101294.63
2022-10-31T10:50:13.845Z,101288.16
2022-10-31T10:53:00.020Z,101295.06
2022-10-31T10:55:51.095Z,101280.91
2022-10-31T10:58:17.424Z,101278.47
2022-10-31T11:00:48.540Z,101272.88
2022-10-31T11:03:15.784Z,101275.28
2022-10-31T11:05:50.938Z,101272.06
2022-10-31T11:08:27.947Z,101271.66
2022-10-31T11:11:00.560Z,101263.16
2022-10-31T11:13:27.501Z,101258.69
2022-10-31T11:15:56.352Z,101254.25
2022-10-31T11:20:58.336Z,101246.53
2022-10-31T11:23:25.437Z,101238.03
2022-10-31T11:25:53.643Z,101225.47
2022-10-31T11:28:19.969Z,101218.16
2022-10-31T11:30:48.261Z,101215.72
2022-10-31T11:33:27.828Z,101206.78
2022-10-31T11:35:57.894Z,101205.19
2022-10-31T11:38:28.436Z,101200.69
2022-10-31T11:41:20.800Z,101190.19
2022-10-31T11:43:55.434Z,101197.03
2022-10-31T11:46:30.806Z,101188.09
2022-10-31T11:48:57.415Z,101180.81
2022-10-31T11:51:29.581Z,101176.75
2022-10-31T11:54:01.683Z,101169.41
2022-10-31T11:56:38.629Z,101162.94
2022-10-31T11:59:07.686Z,101158.44
2022-10-31T12:01:34.284Z,101160.09
2022-10-31T12:04:00.727Z,101158.44
2022-10-31T12:06:30.782Z,101146.31
2022-10-31T12:08:57.107Z,101146.72
2022-10-31T12:11:37.939Z,101127.31
2022-10-31T12:14:18.660Z,101122.06
2022-10-31T12:16:50.905Z,101123.28
2022-10-31T12:19:28.875Z,101120.06
2022-10-31T12:22:18.078Z,101119.25
2022-10-31T12:25:03.056Z,101116.81
2022-10-31T12:27:32.160Z,101120.06
2022-10-31T12:30:11.255Z,101123.31
2022-10-31T12:32:54.490Z,101109.13
2022-10-31T12:38:29.426Z,101110.69
2022-10-31T12:41:14.732Z,101105.81
2022-10-31T12:43:43.985Z,101094.44
2022-10-31T12:46:16.870Z,101095.22
2022-10-31T12:48:57.434Z,101097.22
2022-10-31T12:51:24.554Z,101081.00
2022-10-31T12:53:56.982Z,101087.44
2022-10-31T12:56:26.346Z,101084.59
2022-10-31T12:58:56.369Z,101079.69
2022-10-31T13:01:26.386Z,101065.09
2022-10-31T13:03:52.779Z,101064.25
2022-10-31T13:06:21.288Z,101065.84
2022-10-31T13:08:56.296Z,101054.44
2022-10-31T13:11:25.992Z,101047.53
2022-10-31T13:13:58.123Z,101043.88
2022-10-31T13:16:27.730Z,101038.56
2022-10-31T13:19:02.724Z,101033.28
2022-10-31T13:21:37.093Z,101025.59
2022-10-31T13:24:05.564Z,101017.88
2022-10-31T13:26:38.904Z,101018.69
2022-10-31T13:29:10.591Z,101010.97
2022-10-31T13:31:40.619Z,101005.28
2022-10-31T13:34:11.650Z,100999.19
2022-10-31T13:36:44.562Z,100993.94
2022-10-31T13:39:16.638Z,100989.06
2022-10-31T13:41:46.164Z,100983.38
2022-10-31T13:44:15.248Z,100980.16
2022-10-31T13:49:22.301Z,100978.47
2022-10-31T13:51:49.891Z,100982.94
2022-10-31T13:54:23.870Z,100986.97
2022-10-31T13:56:51.276Z,100982.91
2022-10-31T13:59:23.580Z,100982.47
2022-10-31T14:01:55.911Z,100976.38
2022-10-31T14:04:28.613Z,100969.84
2022-10-31T14:07:09.010Z,100949.56
2022-10-31T14:09:39.356Z,100950.38
2022-10-31T14:12:11.773Z,100943.47
2022-10-31T14:14:44.499Z,100951.97
2022-10-31T14:17:18.267Z,100945.50
2022-10-31T14:19:44.723Z,100934.16
2022-10-31T14:22:22.002Z,100920.34
2022-10-31T14:24:48.228Z,100922.00
2022-10-31T14:27:20.571Z,100900.50
2022-10-31T14:29:50.439Z,100901.72
2022-10-31T14:32:28.737Z,100907.41
2022-10-31T14:34:56.891Z,100904.19
2022-10-31T14:37:29.270Z,100904.19
2022-10-31T14:40:11.922Z,100887.97
2022-10-31T14:42:57.159Z,100882.72
2022-10-31T14:45:29.546Z,100879.09
2022-10-31T14:48:07.069Z,100889.59
2022-10-31T14:50:53.743Z,100896.91
2022-10-31T14:53:28.895Z,100893.28
2022-10-31T14:55:56.082Z,100891.25
2022-10-31T14:58:24.606Z,100888.41
2022-10-31T15:00:54.982Z,100878.69
2022-10-31T15:03:48.360Z,100887.63
2022-10-31T15:06:31.858Z,100882.00
2022-10-31T15:08:58.111Z,100871.88
2022-10-31T15:11:25.725Z,100869.88
2022-10-31T15:13:56.677Z,100867.91
2022-10-31T15:16:23.155Z,100866.72
2022-10-31T15:18:53.498Z,100860.25
2022-10-31T15:21:21.330Z,100848.13
2022-10-31T15:23:48.513Z,100852.16
2022-10-31T15:26:22.171Z,100845.28
2022-10-31T15:28:59.927Z,100853.44
2022-10-31T15:31:26.487Z,100854.28
2022-10-31T15:33:55.536Z,100843.38
2022-10-31T15:36:27.154Z,100845.00
2022-10-31T15:38:57.030Z,100838.97
2022-10-31T15:41:50.319Z,100831.69
2022-10-31T15:44:25.742Z,100832.53
2022-10-31T15:47:02.859Z,100822.03
2022-10-31T15:49:49.766Z,100832.63
2022-10-31T15:52:19.425Z,100833.47
2022-10-31T15:54:51.070Z,100819.31
2022-10-31T15:57:17.523Z,100821.38
2022-10-31T15:59:49.896Z,100818.59
2022-10-31T16:02:20.011Z,100820.66
2022-10-31T16:04:50.529Z,100804.13
2022-10-31T16:07:22.894Z,100809.81
2022-10-31T16:09:52.557Z,100814.72
2022-10-31T16:12:22.417Z,100801.81
2022-10-31T16:14:50.032Z,100803.06
2022-10-31T16:17:18.688Z,100800.69
2022-10-31T16:19:50.606Z,100798.28
2022-10-31T16:22:21.791Z,100795.53
2022-10-31T16:24:50.665Z,100791.50
2022-10-31T16:27:30.502Z,100782.25
2022-10-31T16:29:58.028Z,100779.47
2022-10-31T16:32:33.512Z,100778.25
2022-10-31T16:35:00.669Z,100795.28
2022-10-31T16:37:33.137Z,100777.91
2022-10-31T16:39:59.389Z,100781.56
2022-10-31T16:42:25.745Z,100769.06
2022-10-31T16:44:52.262Z,100777.59
2022-10-31T16:47:23.333Z,100763.06
2022-10-31T16:49:56.947Z,100753.78
2022-10-31T16:52:23.188Z,100755.84
2022-10-31T16:54:49.503Z,100757.91
2022-10-31T16:57:17.645Z,100757.91
2022-10-31T16:59:45.312Z,100756.75
2022-10-31T17:02:16.012Z,100752.31
2022-10-31T17:04:42.759Z,100748.28
2022-10-31T17:07:11.370Z,100749.16
2022-10-31T17:09:37.715Z,100742.66
2022-10-31T17:12:05.117Z,100736.22
2022-10-31T17:14:31.672Z,100733.41
2022-10-31T17:16:58.122Z,100732.66
2022-10-31T17:19:25.027Z,100726.22
2022-10-31T17:21:51.251Z,100725.03
2022-10-31T17:24:17.558Z,100724.66
2022-10-31T17:26:43.800Z,100733.94
2022-10-31T17:29:10.227Z,100732.78
2022-10-31T17:31:36.875Z,100734.81
2022-10-31T17:34:05.129Z,100736.44
2022-10-31T17:36:31.886Z,100729.19
2022-10-31T17:38:58.336Z,100730.84
2022-10-31T17:41:24.598Z,100724.41
2022-10-31T17:43:57.599Z,100719.56
2022-10-31T17:46:23.919Z,100717.59
2022-10-31T17:48:50.127Z,100721.22
2022-10-31T17:51:16.721Z,100715.59
2022-10-31T17:53:43.051Z,100707.13
2022-10-31T17:56:09.938Z,100704.31
2022-10-31T17:58:36.882Z,100701.50
2022-10-31T18:01:13.680Z,100705.16
2022-10-31T18:03:41.003Z,100698.72
2022-10-31T18:06:07.367Z,100693.88
2022-10-31T18:08:36.592Z,100692.66
2022-10-31T18:11:09.110Z,100691.91
2022-10-31T18:13:35.624Z,100697.56
2022-10-31T18:16:01.960Z,100687.88
2022-10-31T18:18:28.204Z,100692.34
2022-10-31T18:20:57.102Z,100686.28
2022-10-31T18:23:23.393Z,100678.66
2022-10-31T18:25:49.683Z,100687.94
2022-10-31T18:28:15.944Z,100680.66
2022-10-31T18:30:42.332Z,100682.66
2022-10-31T18:33:08.951Z,100698.00
2022-10-31T18:35:36.689Z,100687.94
2022-10-31T18:38:03.471Z,100693.59
2022-10-31T18:40:29.857Z,100684.72
2022-10-31T18:42:56.268Z,100682.69
2022-10-31T18:45:33.884Z,100691.19
2022-10-31T18:48:12.295Z,100673.00
2022-10-31T18:50:41.824Z,100668.19
2022-10-31T18:53:08.290Z,100672.22
2022-10-31T18:55:34.583Z,100681.91
2022-10-31T18:58:00.998Z,100684.38
2022-10-31T19:00:27.428Z,100674.69
2022-10-31T19:02:56.462Z,100677.50
2022-10-31T19:05:23.230Z,100677.94
2022-10-31T19:07:49.526Z,100668.28
2022-10-31T19:10:15.942Z,100670.28
2022-10-31T19:12:42.222Z,100668.28
2022-10-31T19:15:11.129Z,100664.66
2022-10-31T19:17:37.411Z,100662.25
2022-10-31T19:20:04.012Z,100663.47
2022-10-31T19:22:31.049Z,100661.84
2022-10-31T19:24:57.328Z,100661.44
2022-10-31T19:27:26.322Z,100669.09
2022-10-31T19:29:52.751Z,100663.44
2022-10-31T19:32:19.217Z,100667.47
2022-10-31T19:34:46.703Z,100661.78
2022-10-31T19:37:12.971Z,100659.75
2022-10-31T19:39:43.888Z,100661.38
2022-10-31T19:42:10.647Z,100653.72
2022-10-31T19:44:36.903Z,100646.44
2022-10-31T19:47:03.444Z,100645.63
2022-10-31T19:49:29.803Z,100646.47
2022-10-31T19:51:56.121Z,100641.25
2022-10-31T19:54:23.027Z,100644.06
2022-10-31T19:56:49.408Z,100644.50
2022-10-31T19:59:15.703Z,100642.53
2022-10-31T20:01:42.184Z,100638.47
2022-10-31T20:04:08.701Z,100634.47
2022-10-31T20:06:37.027Z,100628.84
2022-10-31T20:09:04.957Z,100624.44
2022-10-31T20:11:31.508Z,100627.66
2022-10-31T20:13:58.985Z,100626.44
2022-10-31T20:16:25.883Z,100624.88
2022-10-31T20:18:52.139Z,100626.09
2022-10-31T20:21:20.146Z,100632.16
2022-10-31T20:23:47.450Z,100628.91
2022-10-31T20:26:15.176Z,100625.31
2022-10-31T20:28:43.399Z,100626.53
2022-10-31T20:31:13.505Z,100618.88
2022-10-31T20:33:39.824Z,100617.25
2022-10-31T20:36:07.274Z,100622.09
2022-10-31T20:38:33.853Z,100618.06
2022-10-31T20:41:01.400Z,100622.50
2022-10-31T20:43:27.749Z,100616.44
2022-10-31T20:45:58.656Z,100610.81
2022-10-31T20:48:25.709Z,100612.00
2022-10-31T20:50:55.692Z,100613.63
2022-10-31T20:53:21.932Z,100608.78
2022-10-31T20:55:48.341Z,100601.53
2022-10-31T20:58:14.599Z,100594.69
2022-10-31T21:00:41.350Z,100595.09
2022-10-31T21:03:07.683Z,100597.50
2022-10-31T21:05:34.089Z,100591.84
2022-10-31T21:08:00.323Z,100583.00
2022-10-31T21:10:26.567Z,100588.25
2022-10-31T21:12:52.839Z,100582.19
2022-10-31T21:15:21.643Z,100579.38
2022-10-31T21:17:48.065Z,100585.84
2022-10-31T21:20:14.285Z,100583.81
2022-10-31T21:22:40.570Z,100584.59
2022-10-31T21:25:08.274Z,100589.03
2022-10-31T21:27:34.772Z,100573.31
2022-10-31T21:30:01.429Z,100576.56
2022-10-31T21:32:27.948Z,100578.16
2022-10-31T21:34:54.227Z,100578.97
2022-10-31T21:37:20.706Z,100571.31
2022-10-31T21:39:50.776Z,100572.91
2022-10-31T21:42:20.601Z,100568.88
2022-10-31T21:44:47.901Z,100575.31
2022-10-31T21:47:14.365Z,100561.22
2022-10-31T21:49:40.631Z,100553.56
2022-10-31T21:52:06.929Z,100546.69
2022-10-31T21:54:33.384Z,100551.13
2022-10-31T21:57:03.285Z,100552.72
2022-10-31T21:59:30.334Z,100546.69
2022-10-31T22:01:58.117Z,100547.09
2022-10-31T22:04:24.523Z,100538.22
2022-10-31T22:06:50.759Z,100537.44
2022-10-31T22:09:18.867Z,100538.22
2022-10-31T22:11:45.273Z,100530.56
2022-10-31T22:14:16.233Z,100523.72
2022-10-31T22:16:42.552Z,100521.31
2022-10-31T22:19:10.852Z,100518.50
2022-10-31T22:21:38.795Z,100511.66
2022-10-31T22:24:07.713Z,100513.66
2022-10-31T22:26:34.257Z,100509.22
2022-10-31T22:29:02.374Z,100506.41
2022-10-31T22:31:29.652Z,100493.97
2022-10-31T22:33:56.092Z,100491.94
2022-10-31T22:36:24.553Z,100496.78
2022-10-31T22:38:51.040Z,100488.34
2022-10-31T22:41:18.600Z,100487.50
2022-10-31T22:43:45.122Z,100484.69
2022-10-31T22:46:13.316Z,100484.31
2022-10-31T22:48:41.578Z,100474.25
2022-10-31T22:51:08.709Z,100482.69
2022-10-31T22:53:35.656Z,100477.47
2022-10-31T22:56:02.787Z,100477.47
2022-10-31T22:58:29.643Z,100473.44
2022-10-31T23:00:58.501Z,100471.44
2022-10-31T23:03:25.199Z,100470.22
2022-10-31T23:05:59.561Z,100455.75
2022-10-31T23:08:26.737Z,100455.34
2022-10-31T23:10:53.004Z,100452.13
2022-10-31T23:13:38.046Z,100456.56
2022-10-31T23:16:08.216Z,100459.78
2022-10-31T23:18:49.749Z,100463.81
2022-10-31T23:21:36.849Z,100463.81
2022-10-31T23:24:03.151Z,100461.00
2022-10-31T23:26:48.222Z,100457.38
2022-10-31T23:29:14.492Z,100454.56
2022-10-31T23:31:40.927Z,100446.53
2022-10-31T23:34:07.364Z,100440.09
2022-10-31T23:36:34.667Z,100440.91
2022-10-31T23:39:01.123Z,100438.88
2022-10-31T23:41:27.390Z,100439.69
2022-10-31T23:43:53.811Z,100441.31
2022-10-31T23:46:20.113Z,100439.72
2022-10-31T23:48:49.267Z,100446.56
2022-10-31T23:51:15.700Z,100435.69
2022-10-31T23:53:45.566Z,100433.66
2022-10-31T23:56:12.933Z,100433.25
2022-10-31T23:58:40.522Z,100439.28
